NOTL Lakeshore

*Note: All times are displayed in the local standard time of the station location.
**Rain - Equipment is designed to accurately record liquid precipitation; under conditions when precipitation is not in liquid form, the data displayed may not properly reflect rainfall values.

Date Max Temp
(°C)
Min Temp
(°C)
Avg Temp
(°C)
Rain (mm) Avg RH (%)
Mon, Apr 23, 2018 14.6 -0.3 7.2 0.0 58.7
Sun, Apr 22, 2018 16.0 -1.4 7.2 0.0 52.0
Sat, Apr 21, 2018 13.6 -1.9 6.0 0.0 54.6
Fri, Apr 20, 2018 8.2 -0.4 3.1 0.0 59.3
Thu, Apr 19, 2018 4.3 0.9 2.3 0.0 69.5
Wed, Apr 18, 2018 4.6 0.9 2.6 0.0 76.6
Tue, Apr 17, 2018 1.6 -0.6 0.8 0.4 76.8
DateTime Avg Temp (°C) Rain (mm) RH (%)
Tue, Apr 24, 2018 18:00 11.0 0.8 83.3
Tue, Apr 24, 2018 17:00 12.3 0.0 64.3
Tue, Apr 24, 2018 16:00 11.2 0.0 64.0
Tue, Apr 24, 2018 15:00 11.2 0.0 64.3
Tue, Apr 24, 2018 14:00 12.1 0.0 61.0
Tue, Apr 24, 2018 13:00 18.3 0.0 38.5
Tue, Apr 24, 2018 12:00 16.3 0.0 42.3
Tue, Apr 24, 2018 11:00 15.2 0.0 53.3
Tue, Apr 24, 2018 10:00 14.4 0.0 58.0
Tue, Apr 24, 2018 09:00 14.0 0.0 56.8
Tue, Apr 24, 2018 08:00 12.0 0.0 63.5
Tue, Apr 24, 2018 07:00 9.8 0.0 70.0
Tue, Apr 24, 2018 06:00 9.8 0.0 67.8
Tue, Apr 24, 2018 05:00 5.6 0.0 82.3
Tue, Apr 24, 2018 04:00 3.8 0.0 88.5
Tue, Apr 24, 2018 03:00 4.4 0.0 84.3
Tue, Apr 24, 2018 02:00 4.5 0.0 82.8
Tue, Apr 24, 2018 01:00 4.3 0.0 84.3
Tue, Apr 24, 2018 00:00 4.4 0.0 83.8
Mon, Apr 23, 2018 23:00 4.7 0.0 82.0
Mon, Apr 23, 2018 22:00 5.4 0.0 75.0
Mon, Apr 23, 2018 21:00 6.2 0.0 67.3
Mon, Apr 23, 2018 20:00 8.1 0.0 58.0
Mon, Apr 23, 2018 19:00 10.2 0.0 48.8
Mon, Apr 23, 2018 18:00 10.9 0.0 46.3
Mon, Apr 23, 2018 17:00 13.6 0.0 36.3
Mon, Apr 23, 2018 16:00 14.0 0.0 33.5
Mon, Apr 23, 2018 15:00 13.2 0.0 37.3
Mon, Apr 23, 2018 14:00 11.1 0.0 48.0
Mon, Apr 23, 2018 13:00 10.9 0.0 49.0
Mon, Apr 23, 2018 12:00 11.6 0.0 46.5
Mon, Apr 23, 2018 11:00 12.0 0.0 44.0
Mon, Apr 23, 2018 10:00 9.9 0.0 51.5
Mon, Apr 23, 2018 09:00 7.9 0.0 59.3
Mon, Apr 23, 2018 08:00 4.5 0.0 68.8
Mon, Apr 23, 2018 07:00 0.4 0.0 78.8
Mon, Apr 23, 2018 06:00 0.3 0.0 77.8
Mon, Apr 23, 2018 05:00 1.4 0.0 70.3
Mon, Apr 23, 2018 04:00 3.1 0.0 58.8
Mon, Apr 23, 2018 03:00 2.0 0.0 68.5
Mon, Apr 23, 2018 02:00 2.7 0.0 64.3
Mon, Apr 23, 2018 01:00 4.0 0.0 56.3
Mon, Apr 23, 2018 00:00 4.3 0.0 57.5
Sun, Apr 22, 2018 23:00 5.4 0.0 62.3
Sun, Apr 22, 2018 22:00 7.0 0.0 59.5
Sun, Apr 22, 2018 21:00 8.9 0.0 41.0
Sun, Apr 22, 2018 20:00 13.5 0.0 22.5
Sun, Apr 22, 2018 19:00 15.3 0.0 20.8


asterix Register now to access more data! asterix